Time;durP1;ratioP1;P1;durP2;ratioP2;P2;SDS_P1;SDS_P2;PMS_P1;PMS_P2;Temp;Humidity;BMP_temperature;BMP_pressure;BME280_temperature;BME280_humidity;BME280_pressure;Samples;Min_cycle;Max_cycle;Signal;HPM_P1;HPM_P2
2021/12/24 00:00:21;;;;;;;30.90;11.80;;;0.60;99.90;;;;;;5099455;28;20204;-65
2021/12/24 00:02:49;;;;;;;25.63;10.20;;;0.60;99.90;;;;;;5099831;28;20635;-60
2021/12/24 00:05:16;;;;;;;26.20;10.70;;;0.70;99.90;;;;;;5101441;28;20194;-61
2021/12/24 00:07:43;;;;;;;25.57;10.50;;;0.70;99.90;;;;;;5108286;28;20210;-62
2021/12/24 00:10:13;;;;;;;28.67;11.70;;;0.80;99.90;;;;;;5109394;28;20537;-61
2021/12/24 00:12:45;;;;;;;28.00;11.50;;;0.80;99.90;;;;;;5104686;28;20655;-61
2021/12/24 00:15:35;;;;;;;28.17;12.73;;;0.80;99.90;;;;;;5081810;28;20204;-61
2021/12/24 00:18:09;;;;;;;31.07;13.10;;;0.80;99.90;;;;;;5091084;28;20321;-61
2021/12/24 00:37:19;;;;;;;31.03;12.40;;;0.60;99.90;;;;;;5109547;28;20198;-62
2021/12/24 00:39:55;;;;;;;31.97;14.00;;;0.50;99.90;;;;;;5116714;28;20244;-61
2021/12/24 00:42:23;;;;;;;32.77;12.67;;;0.50;99.90;;;;;;5107864;28;20309;-61
2021/12/24 00:44:50;;;;;;;46.47;17.30;;;0.50;99.90;;;;;;5122554;27;20191;-61
2021/12/24 00:47:17;;;;;;;32.73;13.67;;;0.50;99.90;;;;;;5126165;28;20244;-62
2021/12/24 00:49:45;;;;;;;32.90;13.67;;;0.60;99.90;;;;;;5126186;28;20195;-62
2021/12/24 00:52:31;;;;;;;30.87;13.60;;;0.60;99.90;;;;;;5118302;28;20188;-60
2021/12/24 00:55:03;;;;;;;25.60;11.20;;;0.60;99.90;;;;;;5103333;28;20207;-61
2021/12/24 00:57:30;;;;;;;30.20;11.70;;;0.60;99.90;;;;;;5130407;27;20187;-62
2021/12/24 00:59:58;;;;;;;23.90;10.60;;;0.60;99.90;;;;;;5123386;28;20590;-61
2021/12/24 01:02:25;;;;;;;25.37;11.40;;;0.60;99.90;;;;;;5120688;28;20215;-61
2021/12/24 01:04:52;;;;;;;20.60;9.83;;;0.60;99.90;;;;;;5102143;28;20207;-61
2021/12/24 01:07:20;;;;;;;24.13;10.50;;;0.60;99.90;;;;;;5108303;28;20199;-62
2021/12/24 01:09:47;;;;;;;21.67;9.23;;;0.70;99.90;;;;;;5106935;28;20252;-61
2021/12/24 01:12:15;;;;;;;21.03;9.70;;;0.70;99.90;;;;;;5104983;28;20297;-61
2021/12/24 01:14:46;;;;;;;19.43;8.83;;;0.70;99.90;;;;;;5118677;28;20303;-60
2021/12/24 01:17:23;;;;;;;19.97;8.50;;;0.80;99.90;;;;;;5101278;28;20440;-60
2021/12/24 01:19:53;;;;;;;19.87;8.83;;;0.80;99.90;;;;;;5118893;28;20198;-60
2021/12/24 01:22:56;;;;;;;20.23;8.93;;;0.80;99.90;;;;;;5113037;28;20227;-60
2021/12/24 01:25:27;;;;;;;22.67;10.03;;;0.80;99.90;;;;;;5093151;28;21373;-61
2021/12/24 01:28:23;;;;;;;31.23;12.20;;;0.70;99.90;;;;;;5115928;28;20201;-61
2021/12/24 01:39:10;;;;;;;26.13;11.03;;;0.90;99.90;;;;;;5056600;28;20199;-62
2021/12/24 01:44:27;;;;;;;24.30;10.63;;;0.80;99.90;;;;;;5087940;28;20202;-60
2021/12/24 01:46:59;;;;;;;23.37;11.17;;;0.80;99.90;;;;;;5073828;28;20207;-60
2021/12/24 01:49:27;;;;;;;17.47;8.33;;;0.80;99.90;;;;;;5111376;28;20192;-60
2021/12/24 01:51:55;;;;;;;25.80;11.40;;;0.70;99.90;;;;;;5085287;28;20531;-60
2021/12/24 01:54:24;;;;;;;27.33;11.37;;;0.70;99.90;;;;;;5081442;28;20204;-59
2021/12/24 01:56:52;;;;;;;21.80;9.57;;;0.70;99.90;;;;;;5081713;28;20254;-60
2021/12/24 01:59:19;;;;;;;27.23;10.30;;;0.70;99.90;;;;;;5093514;28;20207;-60
2021/12/24 02:01:49;;;;;;;33.13;13.20;;;0.70;99.90;;;;;;5089029;28;20219;-61
2021/12/24 02:04:17;;;;;;;25.60;10.90;;;0.70;99.90;;;;;;5085696;28;20200;-60
2021/12/24 02:06:44;;;;;;;26.60;11.23;;;0.70;99.90;;;;;;5107342;28;20291;-61
2021/12/24 02:09:12;;;;;;;38.53;16.33;;;0.80;99.90;;;;;;5104615;28;20200;-62
2021/12/24 02:11:41;;;;;;;34.60;14.53;;;0.80;99.90;;;;;;5094164;27;20195;-61
2021/12/24 02:14:10;;;;;;;29.10;12.37;;;0.80;99.90;;;;;;5093315;28;20611;-62
2021/12/24 02:17:15;;;;;;;26.40;10.77;;;0.90;99.90;;;;;;5086440;28;20257;-61
2021/12/24 02:28:25;;;;;;;32.30;14.30;;;0.80;99.90;;;;;;5098298;28;20324;-61
2021/12/24 02:30:53;;;;;;;25.10;11.60;;;0.80;99.90;;;;;;5088241;28;20204;-61
2021/12/24 02:33:20;;;;;;;26.53;11.00;;;0.80;99.90;;;;;;5098658;28;20200;-62
2021/12/24 02:35:47;;;;;;;23.57;10.67;;;0.70;99.90;;;;;;5101659;28;20201;-60
2021/12/24 02:38:16;;;;;;;21.17;8.90;;;0.70;99.90;;;;;;5100603;28;20196;-60
2021/12/24 02:40:43;;;;;;;26.47;11.63;;;0.70;99.90;;;;;;5099601;28;20188;-61
2021/12/24 02:43:14;;;;;;;26.30;11.07;;;0.70;99.90;;;;;;5080437;28;20212;-61
2021/12/24 02:45:45;;;;;;;22.20;9.80;;;0.70;99.90;;;;;;5086179;28;20207;-61
2021/12/24 02:48:36;;;;;;;23.53;10.10;;;0.70;99.90;;;;;;5091682;28;20245;-61
2021/12/24 02:54:04;;;;;;;23.73;10.03;;;0.80;99.90;;;;;;5039226;28;20194;-61
2021/12/24 02:56:33;;;;;;;21.00;9.23;;;0.80;99.90;;;;;;5027290;28;20190;-61
2021/12/24 02:59:04;;;;;;;21.30;10.07;;;0.70;99.90;;;;;;5052808;28;20222;-60
2021/12/24 03:01:35;;;;;;;21.20;9.63;;;0.70;99.90;;;;;;5100841;28;20216;-62
2021/12/24 03:04:03;;;;;;;20.73;9.80;;;0.70;99.90;;;;;;5100299;28;20290;-61
2021/12/24 03:06:33;;;;;;;18.90;8.63;;;0.70;99.90;;;;;;5099327;28;20223;-62
2021/12/24 03:09:00;;;;;;;20.80;10.23;;;0.70;99.90;;;;;;5074251;28;20206;-61
2021/12/24 03:11:29;;;;;;;21.93;9.23;;;0.70;99.90;;;;;;5085658;28;20195;-60
2021/12/24 03:13:56;;;;;;;18.27;8.77;;;0.70;99.90;;;;;;5103745;28;20196;-61
2021/12/24 03:16:24;;;;;;;22.63;9.60;;;0.70;99.90;;;;;;5081921;28;20571;-61
2021/12/24 03:18:52;;;;;;;24.50;10.57;;;0.70;99.90;;;;;;5086884;28;20211;-61
2021/12/24 03:21:23;;;;;;;22.70;10.27;;;0.70;99.90;;;;;;5073881;28;20196;-61
2021/12/24 03:26:36;;;;;;;32.80;13.43;;;0.60;99.90;;;;;;5071856;28;20196;-62
2021/12/24 03:29:04;;;;;;;29.13;11.77;;;0.60;99.90;;;;;;5058051;28;20664;-61
2021/12/24 03:31:31;;;;;;;25.93;11.80;;;0.70;99.90;;;;;;5054820;28;20237;-61
2021/12/24 03:33:59;;;;;;;25.07;10.47;;;0.70;99.90;;;;;;5063393;28;20632;-61
2021/12/24 03:36:27;;;;;;;21.00;10.40;;;0.70;99.90;;;;;;5049927;28;20590;-61
2021/12/24 03:38:56;;;;;;;23.27;9.70;;;0.70;99.90;;;;;;5066140;28;20213;-61
2021/12/24 03:41:25;;;;;;;29.10;13.13;;;0.70;99.90;;;;;;5058231;28;20259;-61
2021/12/24 03:43:55;;;;;;;26.50;11.47;;;0.70;99.90;;;;;;5064950;28;20710;-61
2021/12/24 03:46:30;;;;;;;22.17;9.40;;;0.70;99.90;;;;;;5057105;28;20201;-61
2021/12/24 03:49:02;;;;;;;23.13;10.00;;;0.80;99.90;;;;;;5065854;28;20341;-61
2021/12/24 03:51:42;;;;;;;23.63;10.20;;;0.80;99.90;;;;;;5064711;28;20556;-61
2021/12/24 03:56:54;;;;;;;26.20;12.47;;;0.70;99.90;;;;;;5069000;28;20193;-61
2021/12/24 03:59:43;;;;;;;20.50;9.67;;;0.70;99.90;;;;;;5039883;28;20664;-62
2021/12/24 04:02:29;;;;;;;26.83;11.50;;;0.60;99.90;;;;;;5062850;28;20348;-62
2021/12/24 04:05:16;;;;;;;39.83;15.43;;;0.70;99.90;;;;;;5068018;28;20204;-61
2021/12/24 04:08:01;;;;;;;38.57;14.33;;;0.70;99.90;;;;;;5069583;28;20200;-60
2021/12/24 04:10:46;;;;;;;28.63;12.63;;;0.60;99.90;;;;;;5062053;28;20734;-60
2021/12/24 04:13:32;;;;;;;29.87;12.67;;;0.60;99.90;;;;;;5068313;28;20201;-61
2021/12/24 04:16:01;;;;;;;21.93;9.47;;;0.50;99.90;;;;;;5065202;28;20284;-60
2021/12/24 04:18:40;;;;;;;21.17;9.17;;;0.50;99.90;;;;;;5067828;28;20330;-60
2021/12/24 04:26:39;;;;;;;20.57;9.60;;;0.50;99.90;;;;;;5050453;28;20268;-60
2021/12/24 04:29:07;;;;;;;29.03;11.47;;;0.50;99.90;;;;;;5050689;28;20304;-61
2021/12/24 04:31:43;;;;;;;33.27;13.33;;;0.50;99.90;;;;;;5048965;28;20308;-61
2021/12/24 04:34:33;;;;;;;23.47;11.33;;;0.50;99.90;;;;;;5051590;28;20220;-60
2021/12/24 04:37:43;;;;;;;38.03;15.33;;;0.50;99.90;;;;;;5058166;28;20200;-60
2021/12/24 04:51:09;;;;;;;19.00;9.17;;;0.50;99.90;;;;;;5067992;28;20250;-61
2021/12/24 05:02:15;;;;;;;17.17;7.30;;;0.70;99.90;;;;;;5064649;28;20193;-61
2021/12/24 05:04:51;;;;;;;32.47;13.20;;;0.70;99.90;;;;;;5068676;28;20216;-60
2021/12/24 05:10:04;;;;;;;34.80;13.73;;;0.80;99.90;;;;;;5057378;28;20315;-61
2021/12/24 05:12:34;;;;;;;42.07;16.03;;;0.80;99.90;;;;;;5070509;28;20193;-61
2021/12/24 05:15:02;;;;;;;45.63;19.30;;;0.90;99.90;;;;;;5070453;28;20235;-61
2021/12/24 05:18:04;;;;;;;37.10;15.17;;;0.90;99.90;;;;;;5069954;28;20204;-62
2021/12/24 05:23:40;;;;;;;24.90;11.40;;;0.90;99.90;;;;;;5063698;28;20312;-61
2021/12/24 05:26:07;;;;;;;21.17;10.17;;;0.90;99.90;;;;;;5060759;28;20205;-61
2021/12/24 05:28:35;;;;;;;21.00;9.47;;;0.90;99.90;;;;;;5058478;28;20537;-60
2021/12/24 05:31:02;;;;;;;19.17;8.77;;;0.90;99.90;;;;;;5054799;28;20209;-61
2021/12/24 05:33:29;;;;;;;18.30;8.17;;;0.90;99.90;;;;;;5062357;28;20201;-61
2021/12/24 05:35:58;;;;;;;14.40;6.80;;;0.90;99.90;;;;;;5072634;28;20205;-61
2021/12/24 05:38:25;;;;;;;13.07;6.87;;;0.90;99.90;;;;;;5072145;28;20201;-61
2021/12/24 05:40:52;;;;;;;15.27;7.07;;;0.90;99.90;;;;;;5065656;28;20285;-61
2021/12/24 05:43:19;;;;;;;21.33;10.40;;;1.00;99.90;;;;;;5063936;28;20720;-61
2021/12/24 05:45:47;;;;;;;16.43;7.50;;;1.00;99.90;;;;;;5069716;28;20231;-60
2021/12/24 05:48:25;;;;;;;17.03;7.10;;;1.00;99.90;;;;;;5061233;28;20208;-60
2021/12/24 05:51:01;;;;;;;14.43;6.97;;;1.10;99.90;;;;;;5058013;28;20270;-60
2021/12/24 05:53:47;;;;;;;15.20;6.67;;;1.10;99.90;;;;;;5073615;28;20274;-60
2021/12/24 05:56:19;;;;;;;29.47;10.90;;;1.00;99.90;;;;;;5058231;28;20223;-60
2021/12/24 05:58:51;;;;;;;18.80;8.30;;;1.00;99.90;;;;;;5079545;28;20209;-61
2021/12/24 06:01:18;;;;;;;18.87;8.00;;;1.00;99.90;;;;;;5067455;28;20232;-61
2021/12/24 06:03:48;;;;;;;17.90;6.83;;;1.00;99.90;;;;;;5070938;28;20673;-61
2021/12/24 06:06:17;;;;;;;17.37;7.30;;;1.00;99.90;;;;;;5060452;28;20210;-61
2021/12/24 06:08:44;;;;;;;12.10;5.87;;;1.10;99.90;;;;;;5065679;28;20197;-60
2021/12/24 06:11:11;;;;;;;41.23;16.20;;;1.10;99.90;;;;;;5060307;28;20205;-61
2021/12/24 06:13:38;;;;;;;46.50;18.47;;;1.10;99.90;;;;;;5060710;28;20201;-61
2021/12/24 06:16:07;;;;;;;37.73;14.93;;;1.10;99.90;;;;;;5065183;28;20196;-61
2021/12/24 06:18:37;;;;;;;27.53;12.67;;;1.10;99.90;;;;;;5064673;28;20295;-62
2021/12/24 06:21:05;;;;;;;27.47;11.90;;;1.10;99.90;;;;;;5068552;28;20200;-60
2021/12/24 06:23:36;;;;;;;24.60;10.50;;;1.10;99.90;;;;;;5096712;28;20256;-62
2021/12/24 06:26:03;;;;;;;22.03;9.83;;;1.20;99.90;;;;;;5091054;28;20199;-61
2021/12/24 06:28:31;;;;;;;24.47;9.83;;;1.20;99.90;;;;;;5099308;28;20551;-61
2021/12/24 06:30:58;;;;;;;17.13;8.50;;;1.20;99.90;;;;;;5111688;28;20197;-60
2021/12/24 06:33:25;;;;;;;19.07;8.43;;;1.20;99.90;;;;;;5111907;28;20204;-61
2021/12/24 06:35:54;;;;;;;14.33;7.07;;;1.20;99.90;;;;;;5081555;28;20200;-62
2021/12/24 06:38:21;;;;;;;18.60;7.20;;;1.20;99.90;;;;;;5089417;28;20211;-60
2021/12/24 06:40:50;;;;;;;18.17;7.90;;;1.20;99.90;;;;;;5109946;28;20203;-61
2021/12/24 06:43:17;;;;;;;16.53;7.60;;;1.30;99.90;;;;;;5105959;28;20212;-61
2021/12/24 06:45:47;;;;;;;18.00;8.07;;;1.30;99.90;;;;;;5085874;28;20560;-60
2021/12/24 06:48:15;;;;;;;16.63;7.33;;;1.30;99.90;;;;;;5104705;28;20720;-61
2021/12/24 06:50:42;;;;;;;13.87;6.90;;;1.30;99.90;;;;;;5091207;28;20208;-60
2021/12/24 06:53:09;;;;;;;13.80;6.97;;;1.30;99.90;;;;;;5098058;28;20266;-60
2021/12/24 06:55:36;;;;;;;14.70;6.87;;;1.30;99.90;;;;;;5103694;28;20202;-61
2021/12/24 06:58:09;;;;;;;17.30;7.37;;;1.30;99.90;;;;;;5089830;28;20202;-61
2021/12/24 07:00:36;;;;;;;12.83;6.33;;;1.40;99.90;;;;;;5092388;28;20196;-60
2021/12/24 07:03:06;;;;;;;13.73;6.47;;;1.40;99.90;;;;;;5089255;28;20721;-61
2021/12/24 07:05:34;;;;;;;15.13;6.80;;;1.50;99.90;;;;;;5095258;28;20232;-61
2021/12/24 07:08:01;;;;;;;13.90;6.33;;;1.40;99.90;;;;;;5111528;28;20274;-61
2021/12/24 07:10:28;;;;;;;18.43;7.40;;;1.50;99.90;;;;;;5110417;28;20200;-62
2021/12/24 07:12:56;;;;;;;29.03;11.50;;;1.60;99.90;;;;;;5092213;28;20275;-61
2021/12/24 07:15:24;;;;;;;23.27;9.53;;;1.60;99.90;;;;;;5108041;28;20195;-61
2021/12/24 07:17:51;;;;;;;17.87;8.73;;;1.60;99.90;;;;;;5096658;28;20642;-62
2021/12/24 07:20:19;;;;;;;33.33;14.10;;;1.60;99.90;;;;;;5103113;28;20204;-60
2021/12/24 07:22:48;;;;;;;30.13;13.07;;;1.60;99.90;;;;;;5104318;28;20232;-60
2021/12/24 07:25:15;;;;;;;38.60;15.73;;;1.70;99.90;;;;;;5099032;28;20205;-59
2021/12/24 07:27:42;;;;;;;33.47;12.80;;;1.70;99.90;;;;;;5103905;27;20681;-62
2021/12/24 07:30:12;;;;;;;42.03;18.87;;;1.60;99.90;;;;;;5087779;28;20207;-61
2021/12/24 07:32:42;;;;;;;30.73;14.00;;;1.70;99.90;;;;;;5098007;28;20275;-63
2021/12/24 07:35:11;;;;;;;51.93;19.97;;;1.70;99.90;;;;;;5102816;28;20193;-60
2021/12/24 07:37:39;;;;;;;46.67;19.13;;;1.70;99.90;;;;;;5097854;27;20195;-61
2021/12/24 07:40:09;;;;;;;45.87;18.27;;;1.70;99.90;;;;;;5102498;28;20586;-61
2021/12/24 07:42:37;;;;;;;35.07;14.97;;;1.50;99.90;;;;;;5090126;28;20188;-60
2021/12/24 07:45:07;;;;;;;50.00;20.40;;;1.60;99.90;;;;;;5091375;28;20215;-62
2021/12/24 07:47:38;;;;;;;51.27;19.70;;;1.70;99.90;;;;;;5075775;28;20207;-60
2021/12/24 07:51:54;;;;;;;40.17;17.23;;;1.60;99.90;;;;;;5098337;28;20507;-61
2021/12/24 07:53:04;;;;;;;41.93;16.93;;;1.70;99.90;;;;;;5092789;28;20717;-62
2021/12/24 07:55:32;;;;;;;34.37;15.00;;;1.70;99.90;;;;;;5104014;28;20214;-61
2021/12/24 07:57:59;;;;;;;52.97;19.70;;;1.70;99.90;;;;;;5085180;28;20223;-62
2021/12/24 08:00:27;;;;;;;43.63;17.60;;;1.80;99.90;;;;;;5105165;28;20674;-61
2021/12/24 08:02:55;;;;;;;41.43;17.20;;;1.80;99.90;;;;;;5110209;28;20227;-61
2021/12/24 08:05:25;;;;;;;40.53;16.43;;;1.80;99.90;;;;;;5091648;28;20208;-61
2021/12/24 08:07:54;;;;;;;35.67;16.40;;;1.80;99.90;;;;;;5110877;28;20431;-60
2021/12/24 08:10:23;;;;;;;32.13;14.00;;;1.90;99.90;;;;;;5103928;28;20547;-60
2021/12/24 08:12:51;;;;;;;46.47;19.60;;;1.90;99.90;;;;;;5106056;28;20194;-61
2021/12/24 08:15:19;;;;;;;46.10;19.10;;;2.00;99.90;;;;;;5099813;28;20952;-61
2021/12/24 08:17:47;;;;;;;47.73;19.77;;;2.00;99.90;;;;;;5098004;28;20188;-62
2021/12/24 08:20:21;;;;;;;48.77;19.57;;;2.00;99.90;;;;;;5077113;28;20203;-61
2021/12/24 08:22:50;;;;;;;50.43;19.97;;;2.00;99.90;;;;;;5106859;28;20235;-61
2021/12/24 08:25:18;;;;;;;49.63;21.17;;;2.00;99.90;;;;;;5095619;28;20200;-62
2021/12/24 08:27:45;;;;;;;42.03;17.63;;;2.00;99.90;;;;;;5083817;28;20195;-60
2021/12/24 08:30:13;;;;;;;49.50;18.57;;;2.00;99.90;;;;;;5077650;28;20215;-61
2021/12/24 08:32:42;;;;;;;54.83;20.80;;;2.00;99.90;;;;;;5103648;28;20195;-61
2021/12/24 08:35:11;;;;;;;51.57;21.20;;;2.00;99.90;;;;;;5079534;28;20223;-60
2021/12/24 08:37:39;;;;;;;53.13;20.23;;;2.00;99.90;;;;;;5090180;28;20204;-61
2021/12/24 08:40:09;;;;;;;40.30;17.63;;;2.00;99.90;;;;;;5101865;28;20206;-61
2021/12/24 08:42:37;;;;;;;55.07;21.87;;;2.00;99.90;;;;;;5082034;28;20596;-62
2021/12/24 08:45:04;;;;;;;55.20;20.93;;;2.10;99.90;;;;;;5112551;28;20219;-61
2021/12/24 08:47:32;;;;;;;46.53;18.20;;;2.10;99.90;;;;;;5100749;28;20287;-61
2021/12/24 08:49:59;;;;;;;45.73;18.77;;;2.10;99.90;;;;;;5094694;28;20295;-60
2021/12/24 08:52:26;;;;;;;47.60;18.30;;;2.10;99.90;;;;;;5098074;28;20655;-62
2021/12/24 08:54:53;;;;;;;47.23;18.90;;;2.10;99.90;;;;;;5089946;28;20216;-60
2021/12/24 08:57:22;;;;;;;51.83;19.53;;;2.10;99.90;;;;;;5107748;28;20202;-61
2021/12/24 08:59:49;;;;;;;45.10;18.77;;;2.10;99.90;;;;;;5105569;28;20702;-62
2021/12/24 09:02:17;;;;;;;43.60;18.73;;;2.10;99.90;;;;;;5109358;28;20279;-61
2021/12/24 09:04:44;;;;;;;50.60;19.97;;;2.10;99.90;;;;;;5104786;28;20265;-61
2021/12/24 09:07:11;;;;;;;48.50;19.20;;;2.10;99.90;;;;;;5102494;28;20562;-61
2021/12/24 09:09:39;;;;;;;46.20;18.83;;;2.10;99.90;;;;;;5093657;28;20202;-61
2021/12/24 09:12:07;;;;;;;45.87;19.63;;;2.10;99.90;;;;;;5101711;28;20191;-61
2021/12/24 09:14:36;;;;;;;45.03;18.57;;;2.10;99.90;;;;;;5102408;28;20688;-61
2021/12/24 09:17:03;;;;;;;39.77;17.53;;;2.10;99.90;;;;;;5104930;28;20601;-62
2021/12/24 09:19:33;;;;;;;39.33;17.10;;;2.10;99.90;;;;;;5110296;28;20207;-61
2021/12/24 09:22:00;;;;;;;45.07;18.97;;;2.20;99.90;;;;;;5110058;28;20330;-61
2021/12/24 09:24:30;;;;;;;47.60;19.13;;;2.30;99.90;;;;;;5090702;28;20692;-62
2021/12/24 09:26:57;;;;;;;51.67;20.50;;;2.30;99.90;;;;;;5106787;28;20208;-61
2021/12/24 09:29:25;;;;;;;51.33;19.77;;;2.20;99.90;;;;;;5107896;28;20199;-60
2021/12/24 09:31:54;;;;;;;52.07;21.27;;;2.20;99.90;;;;;;5106112;28;20192;-60
2021/12/24 09:34:21;;;;;;;46.97;18.57;;;2.10;99.90;;;;;;5111282;28;20346;-61
2021/12/24 09:36:49;;;;;;;52.90;20.67;;;2.20;99.90;;;;;;5110849;28;20196;-60
2021/12/24 09:39:16;;;;;;;51.87;19.90;;;2.20;99.90;;;;;;5111527;27;20256;-60
2021/12/24 09:41:43;;;;;;;50.47;20.33;;;2.20;99.90;;;;;;5099658;28;20285;-61
2021/12/24 09:44:11;;;;;;;51.07;19.87;;;2.20;99.90;;;;;;5096843;28;20211;-61
2021/12/24 09:46:42;;;;;;;48.33;18.83;;;2.30;99.90;;;;;;5105096;28;20224;-61
2021/12/24 09:49:12;;;;;;;54.77;19.23;;;2.30;99.90;;;;;;5107316;28;20652;-60
2021/12/24 09:51:41;;;;;;;52.97;21.13;;;2.30;99.90;;;;;;5086733;28;20735;-61
2021/12/24 09:54:13;;;;;;;60.63;21.80;;;2.40;99.90;;;;;;5089892;28;20693;-61
2021/12/24 09:56:42;;;;;;;50.67;19.87;;;2.30;99.90;;;;;;5102661;28;20194;-61
2021/12/24 09:59:09;;;;;;;50.87;19.57;;;2.20;99.90;;;;;;5109501;28;20210;-62
2021/12/24 10:01:40;;;;;;;51.30;19.23;;;2.20;99.90;;;;;;5104218;28;20200;-60
2021/12/24 10:04:11;;;;;;;50.00;19.17;;;2.20;99.90;;;;;;5091929;28;20195;-60
2021/12/24 10:06:40;;;;;;;48.27;19.83;;;2.20;99.90;;;;;;5097996;28;20192;-62
2021/12/24 10:09:11;;;;;;;53.70;19.70;;;2.20;99.90;;;;;;5106980;28;20241;-60
2021/12/24 10:11:49;;;;;;;50.97;19.23;;;2.20;99.90;;;;;;5107219;27;20654;-61
2021/12/24 10:14:18;;;;;;;45.87;18.53;;;2.20;99.90;;;;;;5109364;28;20209;-60
2021/12/24 10:16:47;;;;;;;56.33;20.97;;;2.20;99.90;;;;;;5106901;28;20199;-60
2021/12/24 10:19:16;;;;;;;51.27;19.80;;;2.20;99.90;;;;;;5106676;28;20195;-61
2021/12/24 10:21:45;;;;;;;52.20;19.83;;;2.30;99.90;;;;;;5100104;28;20239;-61
2021/12/24 10:24:16;;;;;;;48.77;19.27;;;2.30;99.90;;;;;;5109972;28;20180;-61
2021/12/24 10:26:47;;;;;;;44.17;18.77;;;2.30;99.90;;;;;;5098772;28;20293;-61
2021/12/24 10:29:16;;;;;;;48.10;19.43;;;2.30;99.90;;;;;;5106020;28;20249;-60
2021/12/24 10:31:47;;;;;;;43.00;16.83;;;2.20;99.90;;;;;;5101672;28;20197;-61
2021/12/24 10:34:25;;;;;;;45.97;16.53;;;2.20;99.90;;;;;;5097719;28;20297;-62
2021/12/24 10:37:02;;;;;;;36.47;15.70;;;2.30;99.90;;;;;;5101993;28;20534;-62
2021/12/24 10:39:32;;;;;;;37.50;15.63;;;2.30;99.90;;;;;;5109195;28;20199;-62
2021/12/24 10:42:01;;;;;;;39.53;16.67;;;2.40;99.90;;;;;;5107245;28;20360;-61
2021/12/24 10:44:30;;;;;;;39.30;15.70;;;2.40;99.90;;;;;;5106115;28;20207;-61
2021/12/24 10:47:04;;;;;;;34.17;15.23;;;2.40;99.90;;;;;;5109126;28;20199;-60
2021/12/24 10:55:08;;;;;;;38.73;15.30;;;2.50;99.90;;;;;;5087963;28;20552;-60
2021/12/24 10:57:37;;;;;;;30.50;14.47;;;2.50;99.90;;;;;;5105693;28;20541;-62
2021/12/24 11:00:08;;;;;;;27.60;12.53;;;2.50;99.90;;;;;;5105543;28;20282;-61
2021/12/24 11:02:37;;;;;;;31.90;13.97;;;2.50;99.90;;;;;;5090201;28;20196;-60
2021/12/24 11:05:14;;;;;;;26.63;12.03;;;2.60;99.90;;;;;;5106441;28;20545;-61
2021/12/24 11:07:43;;;;;;;31.37;14.00;;;2.60;99.90;;;;;;5092652;28;20551;-61
2021/12/24 11:10:13;;;;;;;34.80;14.03;;;2.70;99.90;;;;;;5086785;28;20303;-60
2021/12/24 11:12:43;;;;;;;26.93;12.40;;;2.80;99.90;;;;;;5082697;28;20217;-62
2021/12/24 11:15:35;;;;;;;25.50;11.93;;;2.80;99.90;;;;;;5101021;28;20192;-60
2021/12/24 11:18:05;;;;;;;29.43;13.50;;;2.90;99.90;;;;;;5080275;28;20580;-62
2021/12/24 11:20:35;;;;;;;27.27;12.73;;;3.00;99.90;;;;;;5099135;28;20548;-61
2021/12/24 11:23:05;;;;;;;28.20;12.30;;;3.00;99.90;;;;;;5102070;28;20236;-61
2021/12/24 11:25:35;;;;;;;25.37;12.33;;;3.00;99.90;;;;;;5096766;28;20196;-61
2021/12/24 11:28:03;;;;;;;30.57;14.07;;;3.10;99.90;;;;;;5100642;28;20191;-60
2021/12/24 11:30:32;;;;;;;27.80;13.53;;;3.10;99.90;;;;;;5093718;28;20218;-60
2021/12/24 11:32:59;;;;;;;27.57;12.73;;;3.00;99.90;;;;;;5096507;28;20290;-61
2021/12/24 11:35:28;;;;;;;23.63;12.10;;;3.10;99.90;;;;;;5098904;28;20383;-60
2021/12/24 11:37:59;;;;;;;28.70;13.97;;;3.10;99.90;;;;;;5078122;28;20192;-61
2021/12/24 11:40:28;;;;;;;26.00;12.37;;;3.10;99.90;;;;;;5088953;28;20191;-61
2021/12/24 11:42:59;;;;;;;26.30;12.33;;;3.20;99.90;;;;;;5088299;28;20187;-61
2021/12/24 11:45:29;;;;;;;26.77;11.63;;;3.20;99.90;;;;;;5101782;28;20215;-61
2021/12/24 11:47:57;;;;;;;23.60;11.70;;;3.30;99.90;;;;;;5107670;28;20196;-61
2021/12/24 11:50:26;;;;;;;29.47;14.07;;;3.30;99.90;;;;;;5106112;28;20199;-61
2021/12/24 11:52:58;;;;;;;29.50;14.00;;;3.30;99.90;;;;;;5091436;28;20195;-61
2021/12/24 11:55:32;;;;;;;26.80;12.87;;;3.40;99.90;;;;;;5096796;28;20184;-61
2021/12/24 11:58:01;;;;;;;28.03;13.20;;;3.40;99.90;;;;;;5107436;28;20627;-61
2021/12/24 12:00:32;;;;;;;25.17;12.17;;;3.40;99.90;;;;;;5103743;28;20827;-62
2021/12/24 12:03:00;;;;;;;20.73;10.83;;;3.50;99.90;;;;;;5104451;27;20198;-62
2021/12/24 12:05:33;;;;;;;24.17;11.93;;;3.60;99.90;;;;;;5094489;28;20215;-61
2021/12/24 12:08:39;;;;;;;26.60;12.93;;;3.60;99.90;;;;;;5101967;28;20275;-62
2021/12/24 12:11:24;;;;;;;24.83;11.73;;;3.70;99.90;;;;;;5093086;28;20211;-61
2021/12/24 12:13:54;;;;;;;26.17;12.43;;;3.70;99.90;;;;;;5093760;28;20214;-61
2021/12/24 12:16:24;;;;;;;24.20;12.53;;;3.70;99.90;;;;;;5090363;28;20220;-60
2021/12/24 12:19:09;;;;;;;23.77;12.00;;;3.60;99.90;;;;;;5098738;28;20683;-62
2021/12/24 12:21:40;;;;;;;21.20;10.37;;;3.60;99.90;;;;;;5101725;28;20195;-61
2021/12/24 12:27:02;;;;;;;25.13;12.97;;;3.60;99.90;;;;;;5104015;28;20666;-61
2021/12/24 12:29:33;;;;;;;32.03;12.00;;;3.60;99.90;;;;;;5105992;28;20290;-61
2021/12/24 12:32:20;;;;;;;27.17;12.07;;;3.60;99.90;;;;;;5078115;28;20200;-60
2021/12/24 12:35:06;;;;;;;22.53;11.17;;;3.60;99.90;;;;;;5100531;28;20663;-62
2021/12/24 12:37:44;;;;;;;25.87;12.27;;;3.60;99.90;;;;;;5102429;28;20895;-61
2021/12/24 12:40:36;;;;;;;23.23;11.53;;;3.60;99.90;;;;;;5104114;28;20196;-60
2021/12/24 12:43:14;;;;;;;22.90;11.03;;;3.50;99.90;;;;;;5097188;28;20188;-61
2021/12/24 12:45:56;;;;;;;24.13;10.63;;;3.50;99.90;;;;;;5095983;28;20211;-61
2021/12/24 12:48:25;;;;;;;23.90;11.50;;;3.50;99.90;;;;;;5079060;28;20206;-61
2021/12/24 12:50:55;;;;;;;24.00;11.07;;;3.40;99.90;;;;;;5100364;28;20250;-61
2021/12/24 12:53:28;;;;;;;21.13;10.63;;;3.30;99.90;;;;;;5101453;28;20249;-61
2021/12/24 12:56:15;;;;;;;21.70;11.07;;;3.30;99.90;;;;;;5095607;28;20188;-61
2021/12/24 12:58:44;;;;;;;21.60;11.20;;;3.30;99.90;;;;;;5086012;28;20215;-61
2021/12/24 13:01:14;;;;;;;22.33;10.17;;;3.30;99.90;;;;;;5087011;28;20276;-61
2021/12/24 13:04:15;;;;;;;25.57;11.83;;;3.30;99.90;;;;;;5099035;28;20196;-61
2021/12/24 13:07:03;;;;;;;18.93;9.50;;;3.30;99.90;;;;;;5076026;28;20243;-61
2021/12/24 13:09:36;;;;;;;23.30;11.00;;;3.30;99.90;;;;;;5099494;28;20216;-61
2021/12/24 13:12:05;;;;;;;22.23;10.37;;;3.30;99.90;;;;;;5098234;28;20529;-61
2021/12/24 13:14:36;;;;;;;21.37;10.17;;;3.30;99.90;;;;;;5098068;28;20195;-60
2021/12/24 13:17:20;;;;;;;22.47;11.10;;;3.20;99.90;;;;;;5101145;28;20766;-60
2021/12/24 13:22:33;;;;;;;19.00;9.97;;;3.30;99.90;;;;;;5071259;28;20236;-60
2021/12/24 13:25:05;;;;;;;21.93;10.67;;;3.30;99.90;;;;;;5071119;28;20200;-60
2021/12/24 13:27:39;;;;;;;17.23;9.07;;;3.30;99.90;;;;;;5092227;28;20188;-61
2021/12/24 13:30:16;;;;;;;22.23;10.20;;;3.30;99.90;;;;;;5077231;28;20563;-61
2021/12/24 13:32:46;;;;;;;17.20;9.30;;;3.40;99.90;;;;;;5087151;28;20555;-61
2021/12/24 13:35:15;;;;;;;16.87;9.40;;;3.40;99.90;;;;;;5105764;28;20196;-61
2021/12/24 13:37:45;;;;;;;15.33;8.33;;;3.40;99.90;;;;;;5103109;28;20258;-62
2021/12/24 13:40:15;;;;;;;19.07;9.57;;;3.40;99.90;;;;;;5104104;28;20261;-60
2021/12/24 13:42:45;;;;;;;16.00;7.80;;;3.40;99.90;;;;;;5099033;28;20230;-60
2021/12/24 13:45:12;;;;;;;13.37;7.17;;;3.40;99.90;;;;;;5096155;28;20199;-60
2021/12/24 13:47:54;;;;;;;14.83;7.67;;;3.40;99.90;;;;;;5079311;28;20202;-61
2021/12/24 13:56:00;;;;;;;17.07;8.47;;;3.50;99.90;;;;;;5093255;28;20188;-62
2021/12/24 13:58:29;;;;;;;14.17;7.73;;;3.50;99.90;;;;;;5082972;28;20299;-61
2021/12/24 14:00:59;;;;;;;15.57;7.47;;;3.40;99.90;;;;;;5095480;28;20184;-61
2021/12/24 14:03:28;;;;;;;13.77;6.97;;;3.50;99.90;;;;;;5082702;28;20681;-61
2021/12/24 14:05:57;;;;;;;17.70;8.60;;;3.50;99.90;;;;;;5110109;28;20203;-60
2021/12/24 14:08:26;;;;;;;17.90;9.17;;;3.40;99.90;;;;;;5103952;28;20200;-60
2021/12/24 14:11:07;;;;;;;16.93;8.80;;;3.40;99.90;;;;;;5100063;28;20195;-61
2021/12/24 14:13:40;;;;;;;16.70;8.87;;;3.40;99.90;;;;;;5100931;28;20188;-62
2021/12/24 14:16:32;;;;;;;14.30;8.07;;;3.40;99.90;;;;;;5095520;28;20216;-60
2021/12/24 14:19:13;;;;;;;14.57;7.73;;;3.40;99.90;;;;;;5101567;28;20211;-61
2021/12/24 14:21:46;;;;;;;11.03;5.77;;;3.40;99.90;;;;;;5105436;27;20553;-61
2021/12/24 14:24:16;;;;;;;9.03;5.10;;;3.50;99.90;;;;;;5099907;28;20183;-61
2021/12/24 14:26:46;;;;;;;7.40;4.90;;;3.50;99.90;;;;;;5105497;28;20208;-61
2021/12/24 14:29:26;;;;;;;7.73;5.10;;;3.50;99.90;;;;;;5101600;28;20248;-60
2021/12/24 14:31:55;;;;;;;7.93;4.20;;;3.50;99.90;;;;;;5099439;28;20634;-62
2021/12/24 14:34:38;;;;;;;6.50;4.13;;;3.50;99.90;;;;;;5090116;28;20256;-61